Time;durP1;ratioP1;P1;durP2;ratioP2;P2;SDS_P1;SDS_P2;PMS_P1;PMS_P2;Temp;Humidity;BMP_temperature;BMP_pressure;BME280_temperature;BME280_humidity;BME280_pressure;Samples;Min_cycle;Max_cycle;Signal;HPM_P1;HPM_P2
2021/05/21 00:00:27;;;;;;;3.60;0.77;;;12.60;84.60;;;;;;5027237;28;20034;-69
2021/05/21 00:02:53;;;;;;;1.65;0.70;;;12.60;84.80;;;;;;5037996;28;20044;-69
2021/05/21 00:05:19;;;;;;;3.92;1.27;;;12.70;84.60;;;;;;5028334;28;20037;-69
2021/05/21 00:07:45;;;;;;;2.28;0.55;;;12.70;84.40;;;;;;5030889;28;20033;-69
2021/05/21 00:10:11;;;;;;;2.13;0.80;;;12.70;84.60;;;;;;5025821;28;20040;-69
2021/05/21 00:12:37;;;;;;;1.48;0.60;;;12.70;84.20;;;;;;5039273;28;20721;-69
2021/05/21 00:15:05;;;;;;;4.22;1.00;;;12.60;84.20;;;;;;5018380;28;20048;-69
2021/05/21 00:17:32;;;;;;;2.67;0.70;;;12.60;84.50;;;;;;5036281;28;20428;-69
2021/05/21 00:19:58;;;;;;;3.03;0.50;;;12.70;84.90;;;;;;5022941;28;20034;-69
2021/05/21 00:22:24;;;;;;;3.38;1.00;;;12.60;84.90;;;;;;5034035;28;20058;-69
2021/05/21 00:24:50;;;;;;;2.53;0.50;;;12.60;84.70;;;;;;5026963;28;20489;-69
2021/05/21 00:27:15;;;;;;;4.35;0.75;;;12.60;84.90;;;;;;5020226;28;20029;-69
2021/05/21 00:29:41;;;;;;;2.78;0.60;;;12.60;85.40;;;;;;5029222;28;20037;-69
2021/05/21 00:32:07;;;;;;;3.30;0.68;;;12.60;85.50;;;;;;5031876;28;20048;-69
2021/05/21 00:34:33;;;;;;;3.42;0.52;;;12.70;85.40;;;;;;5021800;28;20060;-69
2021/05/21 00:36:59;;;;;;;3.40;0.80;;;12.70;85.70;;;;;;5030022;28;20069;-69
2021/05/21 00:39:25;;;;;;;1.80;0.70;;;12.70;85.90;;;;;;5027496;28;20120;-69
2021/05/21 00:41:51;;;;;;;2.75;0.60;;;12.70;86.40;;;;;;5026558;28;20053;-69
2021/05/21 00:44:16;;;;;;;4.82;0.80;;;12.70;86.10;;;;;;5027677;28;20052;-69
2021/05/21 00:46:42;;;;;;;2.50;0.70;;;12.60;86.20;;;;;;5036438;28;20074;-69
2021/05/21 00:49:08;;;;;;;3.53;0.60;;;12.60;86.10;;;;;;5029987;28;20041;-69
2021/05/21 00:51:34;;;;;;;4.90;0.55;;;12.70;86.30;;;;;;5021820;28;20096;-69
2021/05/21 00:54:01;;;;;;;6.15;0.82;;;12.70;86.40;;;;;;5035783;28;20054;-69
2021/05/21 00:56:27;;;;;;;2.08;0.40;;;12.70;86.70;;;;;;5023334;28;20059;-69
2021/05/21 00:58:53;;;;;;;2.40;0.52;;;12.70;86.60;;;;;;5028825;28;20044;-69
2021/05/21 01:01:21;;;;;;;2.72;0.63;;;12.70;86.80;;;;;;5024866;28;20072;-69
2021/05/21 01:03:46;;;;;;;3.50;0.57;;;12.80;86.80;;;;;;5035259;28;20037;-69
2021/05/21 01:06:13;;;;;;;2.67;0.57;;;12.80;86.80;;;;;;5026604;28;20500;-69
2021/05/21 01:08:39;;;;;;;2.05;0.63;;;12.80;87.00;;;;;;5027799;28;20397;-69
2021/05/21 01:11:06;;;;;;;3.05;0.65;;;12.80;86.70;;;;;;5023751;28;20176;-69
2021/05/21 01:13:33;;;;;;;3.28;0.73;;;12.80;87.30;;;;;;5039670;28;20045;-69
2021/05/21 01:15:59;;;;;;;1.73;0.60;;;12.90;86.70;;;;;;5025258;28;20564;-69
2021/05/21 01:18:25;;;;;;;3.00;0.60;;;12.90;86.60;;;;;;5026262;28;20121;-69
2021/05/21 01:20:51;;;;;;;2.58;0.85;;;12.90;86.60;;;;;;5031286;28;20045;-69
2021/05/21 01:23:17;;;;;;;2.25;0.60;;;12.90;86.30;;;;;;5027111;28;20034;-69
2021/05/21 01:25:43;;;;;;;2.97;0.70;;;12.90;86.40;;;;;;5024982;28;20448;-69
2021/05/21 01:28:11;;;;;;;2.30;0.50;;;13.00;86.60;;;;;;5019311;28;20037;-69
2021/05/21 01:30:37;;;;;;;2.40;0.60;;;13.00;86.60;;;;;;5023283;28;20060;-69
2021/05/21 01:33:09;;;;;;;4.43;1.23;;;13.00;86.70;;;;;;5030044;28;20496;-69
2021/05/21 01:35:35;;;;;;;2.53;0.68;;;13.00;87.10;;;;;;5026362;28;20069;-69
2021/05/21 01:38:02;;;;;;;4.43;0.98;;;13.00;86.80;;;;;;5025999;28;20452;-69
2021/05/21 01:40:28;;;;;;;2.30;0.80;;;13.00;86.60;;;;;;5034003;28;20042;-69
2021/05/21 01:42:57;;;;;;;2.63;0.50;;;13.00;86.80;;;;;;5020185;28;20041;-69
2021/05/21 01:45:23;;;;;;;3.53;0.68;;;13.10;86.60;;;;;;5029315;28;20068;-69
2021/05/21 01:47:49;;;;;;;1.70;0.50;;;13.10;86.90;;;;;;5020418;28;20069;-69
2021/05/21 01:50:16;;;;;;;4.80;0.52;;;13.10;86.70;;;;;;5032692;28;20087;-69
2021/05/21 01:52:43;;;;;;;4.75;1.20;;;13.10;87.10;;;;;;5018656;28;20131;-69
2021/05/21 01:55:10;;;;;;;2.42;0.70;;;13.10;87.10;;;;;;5029590;28;20041;-69
2021/05/21 01:57:40;;;;;;;3.53;0.95;;;13.10;87.20;;;;;;5022917;28;20034;-69
2021/05/21 02:00:10;;;;;;;2.28;0.70;;;13.10;87.00;;;;;;5033382;28;20049;-69
2021/05/21 02:02:37;;;;;;;2.60;0.63;;;13.10;87.20;;;;;;5021123;28;20045;-69
2021/05/21 02:05:05;;;;;;;4.28;0.98;;;13.10;87.50;;;;;;5033548;28;20037;-69
2021/05/21 02:07:31;;;;;;;4.60;0.70;;;13.10;88.00;;;;;;5034835;28;20485;-69
2021/05/21 02:09:59;;;;;;;4.75;0.75;;;13.10;88.70;;;;;;5022690;28;20138;-69
2021/05/21 02:12:27;;;;;;;2.35;0.90;;;13.10;89.20;;;;;;5026134;28;20033;-69
2021/05/21 02:14:54;;;;;;;5.63;0.88;;;13.10;89.80;;;;;;5028380;28;20108;-69
2021/05/21 02:17:20;;;;;;;3.03;0.77;;;13.00;89.90;;;;;;5037964;28;20515;-69
2021/05/21 02:19:46;;;;;;;4.07;1.15;;;13.00;90.00;;;;;;5021368;28;20045;-69
2021/05/21 02:22:12;;;;;;;3.95;0.60;;;13.00;90.00;;;;;;5033413;28;20046;-69
2021/05/21 02:24:38;;;;;;;4.80;0.70;;;13.00;90.00;;;;;;5021156;28;20128;-69
2021/05/21 02:27:05;;;;;;;2.55;0.68;;;13.00;90.10;;;;;;5029488;28;20167;-69
2021/05/21 02:29:31;;;;;;;3.53;0.73;;;13.00;90.10;;;;;;5017589;28;20092;-69
2021/05/21 02:31:58;;;;;;;6.38;1.65;;;12.90;90.30;;;;;;5026611;28;20026;-69
2021/05/21 02:34:24;;;;;;;13.40;1.73;;;12.90;90.30;;;;;;5022734;28;20053;-69
2021/05/21 02:36:50;;;;;;;12.05;2.15;;;12.90;89.60;;;;;;5029543;28;20034;-69
2021/05/21 02:39:16;;;;;;;11.70;2.53;;;12.90;89.30;;;;;;5012333;28;20073;-69
2021/05/21 02:41:41;;;;;;;14.07;2.55;;;12.80;89.10;;;;;;5028815;28;20068;-69
2021/05/21 02:44:07;;;;;;;17.73;2.72;;;12.90;89.30;;;;;;5033763;28;20132;-69
2021/05/21 02:46:33;;;;;;;14.43;3.17;;;12.80;89.50;;;;;;5022490;28;20069;-69
2021/05/21 02:48:59;;;;;;;16.45;2.70;;;12.80;89.60;;;;;;5032055;28;20040;-69
2021/05/21 02:51:25;;;;;;;20.73;2.70;;;12.70;89.40;;;;;;5025159;28;20411;-69
2021/05/21 02:53:51;;;;;;;12.95;2.55;;;12.70;89.60;;;;;;5028486;28;20040;-69
2021/05/21 02:56:17;;;;;;;15.57;2.60;;;12.60;89.80;;;;;;5020248;28;20440;-69
2021/05/21 02:58:43;;;;;;;17.45;3.13;;;12.60;89.80;;;;;;5037169;28;20566;-69
2021/05/21 03:01:08;;;;;;;16.30;2.95;;;12.60;89.80;;;;;;5021085;28;20475;-69
2021/05/21 03:03:34;;;;;;;14.98;2.67;;;12.60;90.10;;;;;;5032062;28;20044;-69
2021/05/21 03:06:00;;;;;;;18.27;3.08;;;12.50;90.60;;;;;;5024768;28;20508;-68
2021/05/21 03:08:26;;;;;;;14.95;3.80;;;12.40;91.30;;;;;;5028371;28;20454;-68
2021/05/21 03:10:51;;;;;;;14.50;2.78;;;12.30;91.80;;;;;;5018002;28;20582;-68
2021/05/21 03:13:17;;;;;;;15.48;2.65;;;12.20;92.10;;;;;;5031948;28;20041;-68
2021/05/21 03:15:44;;;;;;;16.85;3.38;;;12.10;92.50;;;;;;5026345;28;20076;-68
2021/05/21 03:18:14;;;;;;;14.77;2.45;;;12.00;93.00;;;;;;5028591;28;20102;-68
2021/05/21 03:20:41;;;;;;;13.70;2.53;;;11.90;93.10;;;;;;5025445;28;20044;-67
2021/05/21 03:23:08;;;;;;;15.02;2.97;;;11.90;93.40;;;;;;5031628;28;20053;-67
2021/05/21 03:25:41;;;;;;;20.50;3.78;;;11.80;93.70;;;;;;5027142;28;20115;-67
2021/05/21 03:28:07;;;;;;;16.08;3.40;;;11.70;94.00;;;;;;5025983;28;20403;-67
2021/05/21 03:30:33;;;;;;;17.27;2.53;;;11.60;94.10;;;;;;5031415;28;20037;-67
2021/05/21 03:32:59;;;;;;;16.40;2.60;;;11.60;94.20;;;;;;5021138;28;20486;-67
2021/05/21 03:35:26;;;;;;;17.00;3.47;;;11.50;94.40;;;;;;5040201;28;20103;-67
2021/05/21 03:37:53;;;;;;;16.95;3.40;;;11.50;94.40;;;;;;5025686;28;20119;-67
2021/05/21 03:40:19;;;;;;;15.35;2.42;;;11.40;94.50;;;;;;5029683;28;20044;-67
2021/05/21 03:42:45;;;;;;;17.25;3.65;;;11.40;94.50;;;;;;5029492;28;20054;-67
2021/05/21 03:45:12;;;;;;;18.73;3.35;;;11.30;94.50;;;;;;5030506;28;20428;-67
2021/05/21 03:47:37;;;;;;;17.40;2.70;;;11.30;94.70;;;;;;5023764;28;20034;-67
2021/05/21 03:50:04;;;;;;;17.00;3.20;;;11.20;95.20;;;;;;5030081;28;20045;-67
2021/05/21 03:52:30;;;;;;;16.70;3.13;;;11.20;95.10;;;;;;5024211;28;20406;-67
2021/05/21 03:54:56;;;;;;;16.90;2.75;;;11.10;95.20;;;;;;5030733;28;20091;-67
2021/05/21 03:57:22;;;;;;;14.68;2.97;;;11.10;95.20;;;;;;5025646;28;20112;-67
2021/05/21 03:59:49;;;;;;;18.50;3.22;;;11.00;95.30;;;;;;5040533;28;20108;-67
2021/05/21 04:02:16;;;;;;;20.02;2.88;;;11.00;95.20;;;;;;5026068;28;20048;-67
2021/05/21 04:04:42;;;;;;;13.77;2.95;;;10.90;95.00;;;;;;5031350;28;20413;-67
2021/05/21 04:07:07;;;;;;;15.60;3.08;;;10.90;94.90;;;;;;5032364;28;20380;-67
2021/05/21 04:09:33;;;;;;;13.82;2.58;;;10.90;94.80;;;;;;5025849;28;20077;-67
2021/05/21 04:11:59;;;;;;;15.93;2.90;;;10.80;94.80;;;;;;5030736;28;20067;-67
2021/05/21 04:14:25;;;;;;;15.13;2.72;;;10.80;94.70;;;;;;5026505;28;20049;-67
2021/05/21 04:16:51;;;;;;;19.05;3.20;;;10.90;94.80;;;;;;5032777;28;20060;-67
2021/05/21 04:19:17;;;;;;;16.17;3.40;;;10.80;94.80;;;;;;5022954;28;20064;-67
2021/05/21 04:21:43;;;;;;;15.52;2.72;;;10.80;94.70;;;;;;5027270;28;20054;-68
2021/05/21 04:24:09;;;;;;;20.30;3.40;;;10.90;94.70;;;;;;5024883;28;20029;-68
2021/05/21 04:26:35;;;;;;;20.08;3.40;;;10.90;94.70;;;;;;5028894;28;20061;-68
2021/05/21 04:29:01;;;;;;;19.23;3.13;;;10.90;94.70;;;;;;5023829;28;20076;-67
2021/05/21 04:31:27;;;;;;;17.83;3.03;;;10.90;94.80;;;;;;5032650;28;20045;-67
2021/05/21 04:33:53;;;;;;;14.05;3.08;;;10.90;94.70;;;;;;5017220;28;20038;-67
2021/05/21 04:36:20;;;;;;;18.10;3.50;;;10.90;94.70;;;;;;5031995;28;20045;-67
2021/05/21 04:38:46;;;;;;;17.70;3.20;;;10.80;94.60;;;;;;5022422;28;20476;-67
2021/05/21 04:41:12;;;;;;;15.95;3.13;;;10.80;94.70;;;;;;5034721;28;20087;-67
2021/05/21 04:43:38;;;;;;;20.17;3.42;;;10.80;94.80;;;;;;5028301;28;20037;-67
2021/05/21 04:46:05;;;;;;;19.35;3.53;;;10.70;94.90;;;;;;5019995;28;20481;-67
2021/05/21 04:48:31;;;;;;;16.88;3.20;;;10.80;95.00;;;;;;5038702;28;20061;-67
2021/05/21 04:50:57;;;;;;;23.98;3.30;;;10.80;95.10;;;;;;5030977;28;20433;-67
2021/05/21 04:53:24;;;;;;;18.52;3.42;;;10.90;95.20;;;;;;5037325;28;20141;-67
2021/05/21 04:55:50;;;;;;;15.68;3.33;;;11.00;95.20;;;;;;5023879;28;20061;-67
2021/05/21 04:58:16;;;;;;;14.85;3.90;;;11.10;95.10;;;;;;5027008;28;20041;-67
2021/05/21 05:00:44;;;;;;;18.58;3.42;;;11.30;95.00;;;;;;5027434;28;20061;-67
2021/05/21 05:03:12;;;;;;;16.85;3.25;;;11.40;94.90;;;;;;5026221;28;20120;-67
2021/05/21 05:05:38;;;;;;;12.75;2.97;;;11.60;94.70;;;;;;5021698;28;20114;-67
2021/05/21 05:08:04;;;;;;;22.70;3.88;;;11.90;94.40;;;;;;5033434;28;20116;-67
2021/05/21 05:10:31;;;;;;;19.02;4.13;;;11.90;94.20;;;;;;5028307;28;20037;-67
2021/05/21 05:12:57;;;;;;;17.70;3.15;;;12.00;94.20;;;;;;5024587;28;20046;-67
2021/05/21 05:15:23;;;;;;;17.63;2.97;;;12.30;94.20;;;;;;5028143;28;20462;-67
2021/05/21 05:17:51;;;;;;;13.77;2.83;;;12.40;93.90;;;;;;5028683;28;20543;-69
2021/05/21 05:20:21;;;;;;;15.52;3.08;;;12.50;93.70;;;;;;5025634;28;20040;-69
2021/05/21 05:22:48;;;;;;;17.45;2.85;;;12.50;93.70;;;;;;5026918;28;20061;-69
2021/05/21 05:25:14;;;;;;;21.48;3.47;;;12.40;93.80;;;;;;5036432;28;20080;-69
2021/05/21 05:27:40;;;;;;;18.98;3.60;;;12.40;93.80;;;;;;5018358;28;20042;-69
2021/05/21 05:30:06;;;;;;;15.82;3.33;;;12.30;93.90;;;;;;5031114;28;20048;-69
2021/05/21 05:32:32;;;;;;;17.27;2.95;;;12.30;93.90;;;;;;5025156;28;20041;-69
2021/05/21 05:34:58;;;;;;;16.70;3.05;;;12.30;94.20;;;;;;5041560;28;20543;-69
2021/05/21 05:37:24;;;;;;;17.85;3.38;;;12.40;94.30;;;;;;5028159;28;20484;-69
2021/05/21 05:39:50;;;;;;;16.60;3.50;;;12.50;94.40;;;;;;5026067;28;20044;-69
2021/05/21 05:42:16;;;;;;;16.85;2.97;;;12.60;94.10;;;;;;5017732;28;20258;-69
2021/05/21 05:44:42;;;;;;;19.50;3.22;;;12.60;94.00;;;;;;5033432;28;20118;-69
2021/05/21 05:47:08;;;;;;;20.38;3.80;;;12.70;94.10;;;;;;5025961;28;20632;-69
2021/05/21 05:49:33;;;;;;;15.48;3.63;;;12.80;93.90;;;;;;5027286;28;20141;-69
2021/05/21 05:51:59;;;;;;;16.92;3.67;;;12.80;93.50;;;;;;5028226;28;20068;-68
2021/05/21 05:54:26;;;;;;;23.27;3.47;;;12.90;93.00;;;;;;5031431;28;20067;-69
2021/05/21 05:56:54;;;;;;;17.23;3.80;;;12.90;92.90;;;;;;5022562;28;23692;-69
2021/05/21 05:59:20;;;;;;;19.00;3.25;;;12.90;92.80;;;;;;5025952;28;20120;-69
2021/05/21 06:01:45;;;;;;;16.77;3.38;;;12.80;92.40;;;;;;5026874;28;20129;-69
2021/05/21 06:04:11;;;;;;;19.10;3.92;;;12.80;92.50;;;;;;5024868;28;20037;-69
2021/05/21 06:06:37;;;;;;;20.55;3.20;;;12.80;92.50;;;;;;5029401;28;20104;-69
2021/05/21 06:09:04;;;;;;;16.45;4.38;;;12.90;92.60;;;;;;5026589;28;20045;-69
2021/05/21 06:11:30;;;;;;;17.40;2.75;;;13.00;92.60;;;;;;5035394;28;20045;-69
2021/05/21 06:13:55;;;;;;;18.58;3.28;;;13.00;92.40;;;;;;5023003;28;20449;-69
2021/05/21 06:16:21;;;;;;;20.42;3.30;;;13.10;92.30;;;;;;5029178;28;20042;-69
2021/05/21 06:18:48;;;;;;;16.23;3.40;;;13.20;92.30;;;;;;5026969;28;20045;-70
2021/05/21 06:21:14;;;;;;;17.70;3.20;;;13.30;92.30;;;;;;5028321;28;20053;-70
2021/05/21 06:23:43;;;;;;;20.55;3.08;;;13.40;92.20;;;;;;5020800;28;20037;-70
2021/05/21 06:28:45;;;;;;;17.23;4.10;;;13.60;91.90;;;;;;5018721;28;20041;-70
2021/05/21 06:31:12;;;;;;;15.05;3.30;;;13.80;91.50;;;;;;5026732;28;20412;-70
2021/05/21 06:33:38;;;;;;;15.90;3.42;;;13.90;91.00;;;;;;5019858;28;20057;-70
2021/05/21 06:36:04;;;;;;;16.52;3.17;;;14.10;90.10;;;;;;5030844;28;20041;-70
2021/05/21 06:38:31;;;;;;;16.98;3.13;;;14.10;90.00;;;;;;5023177;28;20050;-70
2021/05/21 06:40:56;;;;;;;11.50;2.50;;;14.10;88.80;;;;;;5029549;28;20037;-70
2021/05/21 06:43:23;;;;;;;15.27;2.95;;;14.30;87.60;;;;;;5036875;28;20120;-70
2021/05/21 06:45:49;;;;;;;20.48;4.45;;;14.40;87.50;;;;;;5027238;28;20118;-70
2021/05/21 06:48:15;;;;;;;16.45;3.22;;;14.60;85.80;;;;;;5036974;28;20083;-71
2021/05/21 06:50:43;;;;;;;12.32;2.95;;;14.70;83.40;;;;;;5030712;28;20457;-70
2021/05/21 06:53:10;;;;;;;15.70;3.25;;;15.00;84.00;;;;;;5034455;28;20468;-68
2021/05/21 06:55:36;;;;;;;16.13;3.10;;;15.00;83.60;;;;;;5027119;28;20041;-69
2021/05/21 06:58:02;;;;;;;14.52;3.33;;;15.00;81.80;;;;;;5033097;28;20041;-69
2021/05/21 07:00:27;;;;;;;11.80;2.42;;;14.80;81.90;;;;;;5029116;28;20034;-69
2021/05/21 07:02:53;;;;;;;17.38;3.63;;;14.60;82.70;;;;;;5037063;28;20053;-69
2021/05/21 07:05:19;;;;;;;17.95;3.08;;;14.50;83.20;;;;;;5030544;28;20040;-69
2021/05/21 07:07:46;;;;;;;15.63;3.22;;;14.50;84.70;;;;;;5032622;28;20125;-69
2021/05/21 07:10:12;;;;;;;19.05;4.15;;;14.50;84.70;;;;;;5023581;28;20045;-70
2021/05/21 07:12:38;;;;;;;13.70;2.85;;;14.50;82.90;;;;;;5033960;28;20037;-69
2021/05/21 07:15:06;;;;;;;15.93;2.85;;;14.60;81.80;;;;;;5026590;28;20064;-70
2021/05/21 07:17:32;;;;;;;11.18;2.83;;;14.60;81.70;;;;;;5033382;28;20054;-70
2021/05/21 07:19:58;;;;;;;19.60;3.42;;;14.60;81.90;;;;;;5033920;28;20036;-70
2021/05/21 07:22:24;;;;;;;17.45;3.05;;;14.70;81.00;;;;;;5034644;28;20102;-70
2021/05/21 07:24:50;;;;;;;17.15;3.05;;;14.70;78.70;;;;;;5035725;28;20116;-70
2021/05/21 07:27:16;;;;;;;14.23;3.10;;;14.70;79.20;;;;;;5034044;28;20485;-70
2021/05/21 07:29:42;;;;;;;17.42;3.42;;;14.70;79.60;;;;;;5034654;28;20138;-70
2021/05/21 07:32:09;;;;;;;17.67;3.05;;;14.80;79.40;;;;;;5025816;28;20090;-69
2021/05/21 07:34:35;;;;;;;13.13;3.42;;;14.80;79.10;;;;;;5033395;28;20033;-69
2021/05/21 07:37:01;;;;;;;14.85;3.28;;;14.90;80.20;;;;;;5034246;28;20090;-69
2021/05/21 07:39:27;;;;;;;16.17;3.13;;;15.20;80.40;;;;;;5031015;28;20068;-71
2021/05/21 07:41:56;;;;;;;16.38;3.25;;;15.30;77.60;;;;;;5026258;28;20092;-70
2021/05/21 07:44:22;;;;;;;11.88;2.80;;;15.30;76.30;;;;;;5039477;28;20038;-70
2021/05/21 07:46:48;;;;;;;16.30;3.17;;;15.30;77.20;;;;;;5026134;28;20500;-70
2021/05/21 07:49:14;;;;;;;15.10;3.08;;;15.20;76.20;;;;;;5029951;28;20468;-70
2021/05/21 07:51:40;;;;;;;12.57;2.85;;;15.10;76.30;;;;;;5026497;28;20045;-70
2021/05/21 07:54:06;;;;;;;15.68;3.00;;;15.10;75.60;;;;;;5041874;28;20485;-70
2021/05/21 07:56:32;;;;;;;14.45;2.90;;;15.00;73.90;;;;;;5021990;28;20112;-70
2021/05/21 07:58:58;;;;;;;13.95;2.58;;;14.80;74.30;;;;;;5034874;28;20065;-70
2021/05/21 08:01:23;;;;;;;15.93;2.92;;;14.70;75.30;;;;;;5031750;28;20529;-70
2021/05/21 08:03:49;;;;;;;14.27;3.13;;;14.60;76.00;;;;;;5035443;28;20553;-70
2021/05/21 08:06:16;;;;;;;14.50;2.70;;;14.40;77.00;;;;;;5025690;28;20401;-70
2021/05/21 08:08:42;;;;;;;16.88;3.20;;;14.40;76.20;;;;;;5027005;28;20064;-70
2021/05/21 08:11:08;;;;;;;17.20;2.80;;;14.40;74.80;;;;;;5032814;28;20037;-69
2021/05/21 08:13:38;;;;;;;12.60;2.72;;;14.30;74.50;;;;;;5036147;28;20039;-69
2021/05/21 08:16:09;;;;;;;12.75;2.60;;;14.40;75.00;;;;;;5030740;28;20037;-70
2021/05/21 08:18:35;;;;;;;11.25;2.65;;;14.40;75.00;;;;;;5026979;28;20095;-70
2021/05/21 08:21:01;;;;;;;16.25;2.85;;;14.40;75.60;;;;;;5035786;28;20111;-70
2021/05/21 08:23:27;;;;;;;15.23;2.67;;;14.50;74.80;;;;;;5030083;28;20049;-68
2021/05/21 08:25:53;;;;;;;14.02;2.60;;;14.70;74.40;;;;;;5029168;28;20072;-69
2021/05/21 08:28:19;;;;;;;11.55;2.22;;;14.80;74.70;;;;;;5032023;28;20103;-69
2021/05/21 08:30:44;;;;;;;13.82;2.42;;;15.10;73.90;;;;;;5034806;28;20187;-70
2021/05/21 08:33:12;;;;;;;13.65;3.67;;;15.50;72.70;;;;;;5019031;28;20137;-70
2021/05/21 08:35:38;;;;;;;7.88;2.22;;;15.80;70.00;;;;;;5026004;28;20041;-70
2021/05/21 08:38:03;;;;;;;12.57;2.50;;;15.90;68.00;;;;;;5026669;28;20049;-70
2021/05/21 08:40:36;;;;;;;13.35;3.10;;;16.10;67.40;;;;;;5031526;28;20107;-70
2021/05/21 08:43:06;;;;;;;14.50;2.72;;;16.30;67.70;;;;;;5020847;28;20045;-70
2021/05/21 08:45:32;;;;;;;15.30;3.22;;;16.40;66.20;;;;;;5028523;28;20029;-69
2021/05/21 08:47:58;;;;;;;14.77;2.97;;;16.50;66.50;;;;;;5027284;28;20120;-69
2021/05/21 08:50:25;;;;;;;16.38;3.08;;;16.60;65.40;;;;;;5020947;28;20052;-68
2021/05/21 08:52:51;;;;;;;12.57;2.55;;;16.80;65.10;;;;;;5031157;28;20045;-68
2021/05/21 08:55:18;;;;;;;16.33;2.75;;;17.00;65.60;;;;;;5027815;28;20421;-68
2021/05/21 08:57:44;;;;;;;14.05;2.67;;;17.20;63.50;;;;;;5032026;28;20040;-68
2021/05/21 09:00:11;;;;;;;12.77;2.38;;;17.30;62.90;;;;;;5021502;28;20038;-68
2021/05/21 09:02:38;;;;;;;11.82;3.15;;;17.30;62.20;;;;;;5029129;28;20497;-68
2021/05/21 09:05:06;;;;;;;14.55;2.50;;;17.20;60.70;;;;;;5030489;28;20037;-68
2021/05/21 09:07:37;;;;;;;13.07;2.60;;;16.90;61.70;;;;;;5029738;28;20119;-68
2021/05/21 09:10:15;;;;;;;15.15;3.00;;;16.80;61.50;;;;;;5025426;28;20492;-68
2021/05/21 09:12:47;;;;;;;9.48;2.47;;;16.60;62.20;;;;;;5028259;28;20108;-68
2021/05/21 09:15:15;;;;;;;12.07;2.22;;;16.50;61.70;;;;;;5027741;28;20049;-68
2021/05/21 09:17:56;;;;;;;9.98;2.30;;;16.40;62.20;;;;;;5038421;28;20041;-68
2021/05/21 09:20:23;;;;;;;11.52;2.42;;;16.40;63.20;;;;;;5027424;28;20033;-68
2021/05/21 09:23:11;;;;;;;12.20;2.05;;;16.40;63.40;;;;;;5029841;28;20425;-68
2021/05/21 09:25:45;;;;;;;9.63;2.63;;;16.40;61.50;;;;;;5021116;28;20104;-69
2021/05/21 09:28:32;;;;;;;10.50;2.45;;;16.30;63.10;;;;;;5034216;28;20045;-69
2021/05/21 09:31:19;;;;;;;9.70;2.42;;;16.30;62.80;;;;;;5026261;28;20060;-69
2021/05/21 09:33:48;;;;;;;11.77;2.67;;;16.20;62.20;;;;;;5032338;28;20041;-69
2021/05/21 09:36:26;;;;;;;11.18;2.55;;;16.20;63.80;;;;;;5028076;28;20084;-69
2021/05/21 09:38:56;;;;;;;9.30;1.95;;;16.20;62.50;;;;;;5032221;28;20061;-69
2021/05/21 09:41:25;;;;;;;17.23;2.63;;;16.10;63.00;;;;;;5027626;28;20056;-69
2021/05/21 09:43:59;;;;;;;14.02;2.08;;;16.00;64.30;;;;;;5031887;28;20972;-69
2021/05/21 09:46:38;;;;;;;9.77;2.28;;;15.90;63.90;;;;;;5018681;28;20037;-70
2021/05/21 09:49:35;;;;;;;14.68;2.45;;;15.90;65.00;;;;;;5035603;28;20033;-69
2021/05/21 09:52:04;;;;;;;14.45;3.00;;;15.70;70.10;;;;;;5023993;28;20486;-69
2021/05/21 09:54:55;;;;;;;11.80;2.80;;;15.50;72.50;;;;;;5030688;28;20516;-69
2021/05/21 09:57:32;;;;;;;14.27;2.85;;;15.50;73.30;;;;;;5023750;28;20120;-69
2021/05/21 09:59:58;;;;;;;11.32;2.20;;;15.30;74.20;;;;;;5031510;28;20053;-69
2021/05/21 10:02:30;;;;;;;9.73;2.15;;;15.30;74.90;;;;;;5026368;28;20038;-69
2021/05/21 10:04:57;;;;;;;10.85;2.75;;;15.30;75.70;;;;;;5034928;28;20037;-69
2021/05/21 10:07:24;;;;;;;9.95;1.90;;;15.70;76.00;;;;;;5025927;28;20428;-69
2021/05/21 10:09:50;;;;;;;8.18;1.65;;;16.10;75.80;;;;;;5030297;28;20049;-69
2021/05/21 10:12:17;;;;;;;8.40;1.90;;;16.20;74.10;;;;;;5033375;28;20411;-69
2021/05/21 10:14:48;;;;;;;10.30;2.58;;;16.20;75.20;;;;;;5039637;28;20037;-69
2021/05/21 10:17:23;;;;;;;6.95;1.63;;;15.90;76.80;;;;;;5021165;28;20046;-68
2021/05/21 10:19:51;;;;;;;7.10;1.48;;;15.20;78.20;;;;;;5028013;28;20154;-67
2021/05/21 10:22:31;;;;;;;9.40;1.98;;;14.50;81.90;;;;;;5017772;28;20092;-67
2021/05/21 10:25:24;;;;;;;9.63;2.00;;;13.90;85.40;;;;;;5032792;28;20044;-67
2021/05/21 10:27:54;;;;;;;8.55;1.70;;;13.50;88.60;;;;;;5023839;28;20068;-67
2021/05/21 10:30:25;;;;;;;8.18;1.85;;;13.10;90.60;;;;;;5031338;28;20133;-68
2021/05/21 10:33:29;;;;;;;7.20;1.80;;;13.00;91.50;;;;;;5028484;28;20053;-68
2021/05/21 10:36:23;;;;;;;10.48;2.30;;;13.10;92.70;;;;;;5035803;28;20579;-68
2021/05/21 10:39:04;;;;;;;7.72;2.13;;;13.20;92.60;;;;;;5035849;28;20041;-68
2021/05/21 10:41:31;;;;;;;9.98;2.53;;;13.30;92.60;;;;;;5028385;28;20053;-69
2021/05/21 10:43:59;;;;;;;11.50;2.55;;;13.50;92.70;;;;;;5025629;28;20037;-70
2021/05/21 10:46:27;;;;;;;8.82;2.28;;;13.60;92.60;;;;;;5039977;28;20041;-68
2021/05/21 10:48:54;;;;;;;12.30;2.17;;;13.90;92.50;;;;;;5034957;28;20091;-69
2021/05/21 10:51:21;;;;;;;11.98;2.17;;;14.20;92.00;;;;;;5034898;28;20063;-70
2021/05/21 10:53:47;;;;;;;8.43;2.58;;;14.20;91.10;;;;;;5028375;28;20037;-69
2021/05/21 10:56:16;;;;;;;8.85;2.03;;;14.10;90.70;;;;;;5032805;28;20149;-68
2021/05/21 10:58:44;;;;;;;10.15;2.85;;;14.10;90.70;;;;;;5036766;28;20036;-68
2021/05/21 11:01:13;;;;;;;9.90;1.98;;;14.00;91.10;;;;;;5030759;28;20037;-69
2021/05/21 11:04:05;;;;;;;12.50;2.38;;;14.10;91.30;;;;;;5025071;28;20546;-69
2021/05/21 11:06:51;;;;;;;9.52;1.60;;;14.30;91.20;;;;;;5029712;28;20030;-69
2021/05/21 11:09:27;;;;;;;11.50;2.25;;;14.40;91.10;;;;;;5032434;28;20041;-69
2021/05/21 11:12:09;;;;;;;12.27;2.10;;;14.80;91.30;;;;;;5034285;28;20048;-69
2021/05/21 11:14:45;;;;;;;13.32;2.50;;;15.30;91.50;;;;;;5024900;28;20037;-69
2021/05/21 11:17:27;;;;;;;11.40;2.80;;;15.90;91.50;;;;;;5032024;28;20037;-69
2021/05/21 11:19:56;;;;;;;10.90;2.55;;;16.70;91.30;;;;;;5029265;28;20050;-69
2021/05/21 11:22:31;;;;;;;9.13;1.90;;;17.50;89.20;;;;;;5035282;28;20144;-69
2021/05/21 11:25:12;;;;;;;8.27;2.30;;;17.70;78.60;;;;;;5027948;28;20388;-68
2021/05/21 11:27:38;;;;;;;8.55;1.90;;;17.40;74.10;;;;;;5028194;28;20068;-68
2021/05/21 11:30:09;;;;;;;8.18;1.83;;;16.90;73.70;;;;;;5030305;28;20461;-68
2021/05/21 11:32:40;;;;;;;7.20;1.90;;;16.70;71.80;;;;;;5035979;28;20098;-68
2021/05/21 11:35:08;;;;;;;10.13;1.95;;;16.60;71.90;;;;;;5028458;28;20071;-68
2021/05/21 11:37:34;;;;;;;8.52;2.28;;;16.50;73.70;;;;;;5031069;28;20045;-68
2021/05/21 11:40:05;;;;;;;8.63;2.10;;;16.50;74.70;;;;;;5030001;28;20046;-68
2021/05/21 11:42:32;;;;;;;7.38;1.70;;;16.60;76.20;;;;;;5041685;28;20053;-69
2021/05/21 11:44:58;;;;;;;9.82;1.92;;;16.80;75.10;;;;;;5028250;28;20144;-70
2021/05/21 11:47:37;;;;;;;10.65;1.80;;;17.00;72.70;;;;;;5029490;28;20541;-70
2021/05/21 11:50:06;;;;;;;9.18;1.75;;;17.10;68.30;;;;;;5037230;28;20038;-69
2021/05/21 11:52:31;;;;;;;9.68;2.58;;;17.10;65.90;;;;;;5034428;28;20106;-69
2021/05/21 11:54:57;;;;;;;8.70;1.95;;;16.90;66.60;;;;;;5024872;28;20485;-69
2021/05/21 11:57:24;;;;;;;7.85;1.52;;;16.70;67.20;;;;;;5022950;28;20041;-69
2021/05/21 11:59:54;;;;;;;7.70;1.38;;;16.30;67.60;;;;;;5033095;28;20037;-69
2021/05/21 12:02:20;;;;;;;5.65;1.50;;;16.00;69.90;;;;;;5031938;28;20041;-69
2021/05/21 12:04:48;;;;;;;6.85;1.23;;;16.30;72.10;;;;;;5028904;28;20042;-70
2021/05/21 12:07:16;;;;;;;7.60;1.60;;;16.80;72.10;;;;;;5022615;28;20037;-71
2021/05/21 12:09:51;;;;;;;5.97;1.60;;;17.50;71.20;;;;;;5036610;28;20108;-71
2021/05/21 12:12:21;;;;;;;5.00;1.80;;;18.00;68.20;;;;;;5023934;28;20505;-71
2021/05/21 12:14:46;;;;;;;8.15;1.98;;;18.20;65.50;;;;;;5026198;28;20103;-70
2021/05/21 12:17:12;;;;;;;7.63;1.85;;;18.10;65.70;;;;;;5031118;28;20032;-70
2021/05/21 12:19:41;;;;;;;11.10;2.65;;;17.90;66.60;;;;;;5040207;28;20056;-70
2021/05/21 12:22:07;;;;;;;7.47;2.05;;;17.80;66.50;;;;;;5019568;28;20416;-71
2021/05/21 12:24:41;;;;;;;7.47;1.65;;;17.90;67.10;;;;;;5027530;28;20049;-71
2021/05/21 12:27:09;;;;;;;9.48;1.73;;;18.40;67.00;;;;;;5025388;28;20044;-71
2021/05/21 12:29:35;;;;;;;10.18;1.60;;;18.80;63.50;;;;;;5039361;28;20048;-71
2021/05/21 12:32:04;;;;;;;7.53;1.58;;;18.90;60.50;;;;;;5022505;28;20444;-71
2021/05/21 12:34:30;;;;;;;6.97;1.42;;;18.70;58.60;;;;;;5032191;28;20497;-71
2021/05/21 12:37:01;;;;;;;7.72;1.48;;;18.60;58.00;;;;;;5036034;28;20087;-69
2021/05/21 12:39:32;;;;;;;7.15;1.40;;;18.40;57.20;;;;;;5037735;28;20082;-69
2021/05/21 12:41:59;;;;;;;6.88;1.67;;;18.30;56.30;;;;;;5025962;28;20471;-69
2021/05/21 12:44:26;;;;;;;6.32;1.50;;;18.30;58.60;;;;;;5026562;28;20042;-69
2021/05/21 12:46:53;;;;;;;8.02;1.85;;;18.50;57.40;;;;;;5031604;28;20042;-69